Time;durP1;ratioP1;P1;durP2;ratioP2;P2;SDS_P1;SDS_P2;PMS_P1;PMS_P2;Temp;Humidity;BMP_temperature;BMP_pressure;BME280_temperature;BME280_humidity;BME280_pressure;Samples;Min_cycle;Max_cycle;Signal;HPM_P1;HPM_P2
2022/10/10 00:01:34;;;;;;;4.45;1.52;;;;;;;26.08;36.86;100888.50;4996344;28;20026;-53
2022/10/10 00:04:03;;;;;;;3.08;1.20;;;;;;;26.12;36.88;100884.19;4996481;28;20436;-51
2022/10/10 00:06:32;;;;;;;1.92;1.10;;;;;;;26.08;36.83;100880.59;4994637;28;20154;-53
2022/10/10 00:09:00;;;;;;;3.13;1.23;;;;;;;26.13;37.02;100885.03;4996380;28;20023;-53
2022/10/10 00:11:29;;;;;;;2.78;1.20;;;;;;;26.03;36.95;100879.75;4996101;28;20484;-51
2022/10/10 00:13:58;;;;;;;3.80;1.35;;;;;;;26.05;36.85;100883.25;4996008;28;20031;-55
2022/10/10 00:16:27;;;;;;;3.63;1.67;;;;;;;26.06;37.15;100882.34;4995834;28;20030;-55
2022/10/10 00:18:55;;;;;;;2.10;1.15;;;;;;;26.07;37.16;100880.63;4996248;28;20096;-55
2022/10/10 00:21:24;;;;;;;2.38;1.20;;;;;;;26.11;36.84;100874.53;4995989;28;20484;-54
2022/10/10 00:23:53;;;;;;;3.95;1.63;;;;;;;26.04;36.71;100868.34;4996084;28;20034;-53
2022/10/10 00:26:21;;;;;;;5.07;1.40;;;;;;;26.08;36.99;100877.13;4995893;28;20419;-54
2022/10/10 00:28:50;;;;;;;2.00;1.30;;;;;;;26.04;36.67;100872.72;4995784;28;20077;-54
2022/10/10 00:31:18;;;;;;;3.83;1.25;;;;;;;26.05;37.18;100882.34;4995810;28;20105;-55
2022/10/10 00:33:47;;;;;;;3.20;1.67;;;;;;;26.01;37.08;100883.22;4995865;28;20022;-54
2022/10/10 00:36:16;;;;;;;4.10;1.60;;;;;;;26.02;37.03;100888.50;4995779;28;20099;-52
2022/10/10 00:38:45;;;;;;;5.35;1.67;;;;;;;26.03;36.88;100886.72;4996018;28;20070;-54
2022/10/10 00:54:49;;;;;;;4.80;1.67;;;;;;;25.87;37.19;100910.31;4979077;28;20061;-55
2022/10/10 01:24:22;;;;;;;6.15;1.85;;;;;;;25.83;37.29;100919.06;4993141;28;20041;-54
2022/10/10 01:27:11;;;;;;;4.15;1.60;;;;;;;25.86;37.42;100910.34;4993303;28;20084;-54
2022/10/10 01:29:45;;;;;;;3.45;1.73;;;;;;;25.88;37.00;100917.34;4989136;28;20038;-52
2022/10/10 01:32:17;;;;;;;;;;;;;;;25.88;37.13;100919.97;4995269;28;20022;-54
2022/10/10 01:35:10;;;;;;;6.75;1.88;;;;;;;25.92;36.98;100908.59;4994567;28;20003;-54
2022/10/10 01:37:54;;;;;;;4.90;1.60;;;;;;;25.93;37.13;100923.50;4991141;28;20142;-54
2022/10/10 01:40:28;;;;;;;4.00;1.85;;;;;;;25.89;37.08;100926.13;4993565;28;20552;-53
2022/10/10 01:43:01;;;;;;;3.95;1.65;;;;;;;25.90;36.90;100922.59;4994623;28;20066;-53
2022/10/10 01:45:30;;;;;;;5.97;1.67;;;;;;;25.97;36.95;100927.00;4994375;28;20036;-55
2022/10/10 01:48:02;;;;;;;8.23;2.08;;;;;;;25.88;37.06;100922.59;4994060;28;20038;-54
2022/10/10 01:50:35;;;;;;;5.28;1.75;;;;;;;25.92;37.10;100929.63;4977051;28;20019;-55
2022/10/10 01:53:07;;;;;;;5.55;1.90;;;;;;;25.88;37.10;100927.00;4994492;28;20030;-54
2022/10/10 01:55:36;;;;;;;10.00;2.17;;;;;;;25.88;37.06;100932.25;4992625;28;20046;-54
2022/10/10 01:58:12;;;;;;;6.07;2.15;;;;;;;25.86;37.12;100931.38;4994603;28;20018;-55
2022/10/10 02:00:54;;;;;;;5.60;1.98;;;;;;;25.84;37.40;100926.06;4993081;28;20063;-54
2022/10/10 02:03:28;;;;;;;5.00;2.30;;;;;;;25.84;37.13;100926.06;4994109;28;20030;-54
2022/10/10 02:06:21;;;;;;;8.15;2.45;;;;;;;25.86;37.02;100936.63;4992913;28;20069;-52
2022/10/10 02:08:54;;;;;;;6.03;2.10;;;;;;;25.84;37.12;100939.22;4994310;28;20069;-55
2022/10/10 02:11:24;;;;;;;7.78;2.55;;;;;;;25.80;37.19;100937.47;4993976;28;20033;-54
2022/10/10 02:13:56;;;;;;;5.78;2.60;;;;;;;25.77;37.33;100946.19;4993921;28;20034;-52
2022/10/10 02:16:29;;;;;;;5.57;1.98;;;;;;;25.74;37.37;100938.28;4993971;28;20038;-53
2022/10/10 02:18:59;;;;;;;6.05;2.20;;;;;;;25.71;37.40;100926.91;4992767;28;20026;-55
2022/10/10 02:21:27;;;;;;;5.63;2.38;;;;;;;25.84;37.18;100928.69;4992814;28;20395;-53
2022/10/10 02:23:59;;;;;;;6.10;2.28;;;;;;;25.80;37.40;100940.09;4992723;28;20026;-52
2022/10/10 02:26:28;;;;;;;5.43;1.92;;;;;;;25.81;37.29;100928.72;4993802;28;20035;-54
2022/10/10 02:29:00;;;;;;;5.05;1.70;;;;;;;25.81;37.39;100941.84;4992576;28;20113;-54
2022/10/10 02:31:51;;;;;;;5.03;1.70;;;;;;;25.78;37.21;100944.47;4992628;28;20548;-55
2022/10/10 02:34:23;;;;;;;7.20;2.25;;;;;;;25.78;37.06;100939.22;4993175;28;20069;-53
2022/10/10 02:36:59;;;;;;;6.05;2.60;;;;;;;25.82;37.26;100937.47;4993799;28;20038;-51
2022/10/10 02:39:32;;;;;;;6.43;2.08;;;;;;;25.83;37.17;100944.47;4992359;28;20037;-53
2022/10/10 02:42:00;;;;;;;6.25;2.17;;;;;;;25.86;37.03;100940.09;4993640;28;20028;-53
2022/10/10 02:44:29;;;;;;;6.45;2.05;;;;;;;25.82;37.04;100943.59;4993274;28;20026;-54
2022/10/10 02:46:58;;;;;;;7.63;2.30;;;;;;;25.88;36.93;100943.63;4993585;28;20496;-52
2022/10/10 02:49:30;;;;;;;4.72;1.73;;;;;;;25.83;37.09;100945.34;4993641;28;20522;-54
2022/10/10 02:52:03;;;;;;;6.07;1.80;;;;;;;25.84;36.98;100938.34;4993527;28;20030;-53
2022/10/10 02:54:32;;;;;;;5.07;2.30;;;;;;;25.83;36.97;100933.97;4992413;28;20046;-54
2022/10/10 02:57:00;;;;;;;7.75;2.45;;;;;;;25.74;37.08;100927.78;4993528;28;20101;-51
2022/10/10 02:59:29;;;;;;;7.05;2.70;;;;;;;25.80;36.89;100942.72;4993551;28;20037;-54
2022/10/10 03:01:57;;;;;;;5.78;2.08;;;;;;;25.82;36.97;100942.72;4993536;28;20034;-54
2022/10/10 03:04:26;;;;;;;5.22;1.98;;;;;;;25.80;37.00;100950.59;4993351;28;20085;-53
2022/10/10 03:06:54;;;;;;;5.50;2.10;;;;;;;25.80;37.19;100950.59;4993367;28;20034;-55
2022/10/10 03:09:23;;;;;;;5.68;2.05;;;;;;;25.86;36.91;100949.75;4993265;28;20472;-54
2022/10/10 03:11:51;;;;;;;4.18;1.80;;;;;;;25.80;37.15;100947.97;4993497;28;20034;-53
2022/10/10 03:14:20;;;;;;;6.38;2.25;;;;;;;25.78;37.21;100944.47;4993369;28;20037;-53
2022/10/10 03:16:49;;;;;;;5.03;2.13;;;;;;;25.72;37.28;100932.19;4993254;28;20041;-53
2022/10/10 03:19:17;;;;;;;6.60;2.33;;;;;;;25.75;37.08;100944.44;4993605;28;20503;-54
2022/10/10 03:21:46;;;;;;;4.68;1.77;;;;;;;25.77;37.29;100948.81;4993482;28;20544;-54
2022/10/10 03:24:14;;;;;;;7.80;1.92;;;;;;;25.78;37.22;100952.34;4993256;28;20031;-55
2022/10/10 03:26:43;;;;;;;4.85;1.95;;;;;;;25.77;37.19;100951.44;4991882;28;20065;-54
2022/10/10 03:29:11;;;;;;;6.90;2.00;;;;;;;25.70;37.45;100940.91;4993387;28;20023;-56
2022/10/10 03:31:40;;;;;;;7.80;2.08;;;;;;;25.63;37.42;100937.38;4993040;28;20105;-53
2022/10/10 03:34:08;;;;;;;4.25;1.83;;;;;;;25.73;37.24;100959.31;4993346;28;20485;-55
2022/10/10 03:36:37;;;;;;;5.60;2.22;;;;;;;25.76;37.32;100954.09;4993117;28;20495;-55
2022/10/10 03:39:08;;;;;;;8.38;2.42;;;;;;;25.76;37.30;100960.19;4994419;28;20033;-54
2022/10/10 03:41:36;;;;;;;2.95;1.25;;;;;;;25.73;37.34;100962.81;4997062;28;20030;-55
2022/10/10 03:44:05;;;;;;;4.40;1.95;;;;;;;25.72;37.24;100960.19;4996582;28;20018;-52
2022/10/10 03:46:33;;;;;;;10.85;2.42;;;;;;;25.72;37.17;100966.34;4996727;28;20576;-54
2022/10/10 03:49:01;;;;;;;5.20;1.85;;;;;;;25.71;37.45;100968.94;4995052;28;20488;-54
2022/10/10 03:51:30;;;;;;;5.40;1.95;;;;;;;25.71;37.51;100972.47;4996311;28;20053;-54
2022/10/10 03:53:57;;;;;;;8.00;2.30;;;;;;;25.72;37.43;100970.69;4996604;28;20026;-54
2022/10/10 03:56:26;;;;;;;5.43;1.83;;;;;;;25.59;37.26;100951.34;4996677;28;20038;-54
2022/10/10 03:58:59;;;;;;;6.03;1.90;;;;;;;25.68;37.35;100968.91;4996762;28;20033;-54
2022/10/10 04:01:28;;;;;;;4.40;1.58;;;;;;;25.70;37.30;100969.81;4996676;28;20115;-54
2022/10/10 04:03:57;;;;;;;6.80;2.22;;;;;;;25.70;37.43;100982.94;4995694;28;20041;-54
2022/10/10 04:06:27;;;;;;;6.07;2.00;;;;;;;25.69;37.40;100971.56;4996497;28;20034;-54
2022/10/10 04:08:55;;;;;;;5.50;1.63;;;;;;;25.67;37.21;100975.94;4996425;28;20468;-54
2022/10/10 04:11:24;;;;;;;7.40;1.88;;;;;;;25.68;37.33;100980.31;4996409;28;20026;-54
2022/10/10 04:13:52;;;;;;;5.97;1.88;;;;;;;25.70;37.25;100982.94;4995857;28;20026;-54
2022/10/10 04:16:21;;;;;;;5.32;2.05;;;;;;;25.64;37.47;100975.91;4996399;28;20018;-54
2022/10/10 04:18:49;;;;;;;6.00;2.30;;;;;;;25.69;37.54;100986.44;4995991;28;20109;-53
2022/10/10 04:21:18;;;;;;;6.90;1.80;;;;;;;25.65;37.31;100989.94;4995813;28;20077;-54
2022/10/10 04:23:46;;;;;;;2.78;1.60;;;;;;;25.67;37.50;100993.41;4995995;28;20192;-54
2022/10/10 04:26:15;;;;;;;6.78;1.95;;;;;;;25.67;37.44;100993.41;4995936;28;20045;-55
2022/10/10 04:28:43;;;;;;;5.13;1.55;;;;;;;25.66;37.50;100997.81;4995630;28;20384;-53
2022/10/10 04:31:12;;;;;;;5.93;2.13;;;;;;;25.68;37.28;101003.06;4994766;28;20400;-51
2022/10/10 04:33:40;;;;;;;5.53;1.73;;;;;;;25.62;37.32;101004.81;4995830;28;20026;-53
2022/10/10 04:36:09;;;;;;;5.32;1.67;;;;;;;25.62;37.40;101009.16;4995515;28;20042;-54
2022/10/10 04:38:37;;;;;;;4.68;1.90;;;;;;;25.68;37.36;101010.94;4995737;28;20049;-54
2022/10/10 04:41:06;;;;;;;8.05;1.70;;;;;;;25.67;37.52;101017.06;4995713;28;20037;-54
2022/10/10 04:43:35;;;;;;;6.13;2.20;;;;;;;25.67;37.63;101017.97;4995623;28;20050;-54
2022/10/10 04:46:06;;;;;;;5.78;2.00;;;;;;;25.68;37.44;101024.97;4995714;28;20077;-54
2022/10/10 04:48:35;;;;;;;5.97;2.03;;;;;;;25.67;37.73;101027.56;4995586;28;20034;-52
2022/10/10 04:51:03;;;;;;;3.70;1.60;;;;;;;25.56;37.42;101023.13;4994975;28;20034;-53
2022/10/10 04:53:32;;;;;;;6.85;2.00;;;;;;;25.61;37.53;101029.31;4995445;28;20384;-54
2022/10/10 04:56:00;;;;;;;6.47;2.40;;;;;;;25.60;37.69;101024.94;4995279;28;20081;-53
2022/10/10 04:58:29;;;;;;;4.95;1.80;;;;;;;25.54;37.54;101017.00;4995343;28;20030;-54
2022/10/10 05:00:57;;;;;;;3.90;1.52;;;;;;;25.57;37.80;101030.16;4995524;28;20029;-52
2022/10/10 05:03:26;;;;;;;5.47;2.08;;;;;;;25.58;37.50;101026.66;4995152;28;20113;-54
2022/10/10 05:05:54;;;;;;;5.20;2.05;;;;;;;25.60;37.64;101032.81;4995105;28;20030;-55
2022/10/10 05:08:23;;;;;;;4.88;1.58;;;;;;;25.59;37.23;101025.78;4995354;28;20038;-53
2022/10/10 05:10:53;;;;;;;6.55;1.58;;;;;;;25.60;37.54;101029.28;4994929;28;20365;-55
2022/10/10 05:13:21;;;;;;;3.08;1.42;;;;;;;25.65;37.58;101029.34;4995081;28;20036;-54
2022/10/10 05:15:51;;;;;;;5.18;1.42;;;;;;;25.51;37.51;101016.09;4994868;28;20038;-53
2022/10/10 05:18:20;;;;;;;6.57;1.73;;;;;;;25.59;37.71;101038.03;5032646;28;20029;-53
2022/10/10 05:20:49;;;;;;;3.88;1.48;;;;;;;25.58;37.59;101050.31;5034414;28;20462;-55
2022/10/10 05:23:17;;;;;;;5.53;1.67;;;;;;;25.56;37.68;101052.03;5034213;28;20025;-53
2022/10/10 05:25:49;;;;;;;4.40;1.60;;;;;;;25.58;37.50;101052.03;5034084;28;20064;-53
2022/10/10 05:28:18;;;;;;;4.25;1.90;;;;;;;25.63;37.77;101053.84;5033019;28;20041;-53
2022/10/10 05:30:46;;;;;;;4.78;1.67;;;;;;;25.62;37.54;101053.81;5033571;28;20360;-54
2022/10/10 05:33:15;;;;;;;4.80;1.73;;;;;;;25.64;37.48;101062.59;5033969;28;20029;-55
2022/10/10 05:35:43;;;;;;;7.63;1.45;;;;;;;25.65;37.73;101055.63;5034353;28;20105;-55
2022/10/10 05:38:12;;;;;;;5.85;1.83;;;;;;;25.68;37.61;101058.25;5033247;28;20025;-55
2022/10/10 05:40:41;;;;;;;2.65;1.35;;;;;;;25.71;37.24;101060.91;5034037;28;20029;-55
2022/10/10 05:43:09;;;;;;;2.90;1.30;;;;;;;25.67;37.31;101062.63;5032408;28;20395;-54
2022/10/10 05:45:38;;;;;;;5.40;1.70;;;;;;;25.67;37.42;101067.88;5048892;28;20032;-55
2022/10/10 05:48:05;;;;;;;3.65;1.50;;;;;;;25.65;37.49;101066.97;5032594;28;20036;-54
2022/10/10 05:50:39;;;;;;;3.40;1.38;;;;;;;25.68;37.46;101072.28;5033681;28;20058;-53
2022/10/10 05:53:07;;;;;;;5.10;1.77;;;;;;;25.71;37.49;101068.78;5033500;28;20037;-54
2022/10/10 05:55:36;;;;;;;5.38;1.50;;;;;;;25.66;37.56;101070.47;5033037;28;20052;-55
2022/10/10 05:58:05;;;;;;;4.03;1.40;;;;;;;25.71;37.68;101076.66;5033583;28;20506;-54
2022/10/10 06:00:33;;;;;;;4.85;2.17;;;;;;;25.73;37.29;101080.19;5033550;28;20076;-54
2022/10/10 06:03:02;;;;;;;5.60;1.40;;;;;;;25.61;37.95;101079.22;5032801;28;20028;-55
2022/10/10 06:05:30;;;;;;;4.60;1.60;;;;;;;25.72;37.61;101087.19;5033525;28;20021;-54
2022/10/10 06:07:58;;;;;;;4.30;1.25;;;;;;;25.74;37.70;101092.44;5033391;28;20028;-53
2022/10/10 06:10:25;;;;;;;2.28;1.05;;;;;;;25.77;37.16;101088.09;5033291;28;20094;-55
2022/10/10 06:12:52;;;;;;;3.58;1.85;;;;;;;25.73;37.31;101080.19;5032981;28;20037;-52
2022/10/10 06:15:21;;;;;;;3.63;1.38;;;;;;;25.77;37.52;101095.97;5033209;28;20037;-54
2022/10/10 06:17:49;;;;;;;2.72;1.17;;;;;;;25.73;37.45;101102.06;5033338;28;20029;-54
2022/10/10 06:20:17;;;;;;;5.28;1.58;;;;;;;25.75;37.58;101108.22;5033406;28;20040;-54
2022/10/10 06:22:46;;;;;;;3.47;1.30;;;;;;;25.74;37.60;101109.09;5033552;28;20104;-54
2022/10/10 06:25:15;;;;;;;4.85;1.50;;;;;;;25.75;37.43;101115.22;5032973;28;20040;-53
2022/10/10 06:27:43;;;;;;;3.58;1.20;;;;;;;25.72;37.57;101116.09;5033016;28;20029;-55
2022/10/10 06:30:12;;;;;;;4.03;1.63;;;;;;;25.74;37.70;101116.09;5033231;28;20025;-55
2022/10/10 06:32:40;;;;;;;5.13;2.30;;;;;;;25.71;37.85;101118.69;5033040;28;20033;-55
2022/10/10 06:35:09;;;;;;;4.82;2.03;;;;;;;25.69;37.61;101120.44;5033109;28;20052;-54
2022/10/10 06:37:38;;;;;;;8.07;2.42;;;;;;;25.71;37.39;101132.72;5033108;28;20022;-55
2022/10/10 06:40:06;;;;;;;9.23;2.92;;;;;;;25.67;37.89;101133.56;5033101;28;20033;-54
2022/10/10 06:42:35;;;;;;;6.80;2.75;;;;;;;25.72;37.50;101141.47;5032981;28;20414;-54
2022/10/10 06:45:03;;;;;;;9.73;2.83;;;;;;;25.73;37.67;101148.50;5033018;28;20030;-54
2022/10/10 06:47:32;;;;;;;9.07;2.92;;;;;;;25.71;37.64;101153.75;5032613;28;20091;-54
2022/10/10 06:50:00;;;;;;;8.43;3.00;;;;;;;25.75;37.64;101154.66;5027618;28;20497;-53
2022/10/10 06:52:28;;;;;;;8.02;2.90;;;;;;;25.72;37.54;101162.50;5013118;28;20509;-53
2022/10/10 06:54:57;;;;;;;9.05;2.78;;;;;;;25.74;37.76;101163.41;5012988;28;20050;-54
2022/10/10 06:57:25;;;;;;;7.75;2.85;;;;;;;25.75;37.41;101166.03;5012936;28;20041;-54
2022/10/10 06:59:54;;;;;;;8.95;2.78;;;;;;;25.76;37.52;101177.44;5012776;28;20079;-54
2022/10/10 07:02:22;;;;;;;10.63;3.25;;;;;;;25.74;37.49;101181.78;5013103;28;20480;-54
2022/10/10 07:04:50;;;;;;;8.23;2.90;;;;;;;25.72;37.87;101180.88;5012921;28;20475;-53
2022/10/10 07:07:19;;;;;;;9.63;2.80;;;;;;;25.71;37.51;101189.63;5027990;28;20480;-54
2022/10/10 07:09:47;;;;;;;9.23;2.72;;;;;;;25.75;37.52;101186.19;5013118;28;20053;-54
2022/10/10 07:12:16;;;;;;;7.03;2.92;;;;;;;25.76;37.67;101196.69;5012819;28;20110;-53
2022/10/10 07:14:45;;;;;;;8.20;3.03;;;;;;;25.74;37.68;101205.44;5014883;28;20026;-53
2022/10/10 07:17:13;;;;;;;6.68;2.70;;;;;;;25.71;37.70;101203.69;5015605;28;20066;-54
2022/10/10 07:19:42;;;;;;;7.55;2.58;;;;;;;25.75;37.82;101213.31;5031700;28;20040;-54
2022/10/10 07:22:10;;;;;;;7.63;3.00;;;;;;;25.72;37.87;101209.78;5016683;28;20032;-52
2022/10/10 07:24:38;;;;;;;9.10;2.78;;;;;;;25.70;37.77;101208.91;5016460;28;20033;-54
2022/10/10 07:27:07;;;;;;;5.47;2.55;;;;;;;25.73;37.99;101224.69;5016476;28;20113;-54
2022/10/10 07:29:36;;;;;;;6.65;3.05;;;;;;;25.72;37.91;101228.19;5016438;28;20032;-53
2022/10/10 07:32:05;;;;;;;7.40;2.80;;;;;;;25.69;37.80;101230.78;5016981;28;20097;-53
2022/10/10 07:34:33;;;;;;;6.47;2.58;;;;;;;25.73;37.69;101236.06;5016795;28;20080;-53
2022/10/10 07:37:02;;;;;;;11.38;3.22;;;;;;;25.67;37.75;101241.28;5031817;28;20030;-55
2022/10/10 07:39:30;;;;;;;7.40;2.90;;;;;;;25.66;37.60;101225.47;5016536;28;20388;-55
2022/10/10 07:41:58;;;;;;;8.45;2.42;;;;;;;25.70;37.95;101248.31;5016754;28;20048;-55
2022/10/10 07:44:27;;;;;;;6.50;2.50;;;;;;;25.72;37.64;101251.84;5016092;28;20045;-55
2022/10/10 07:46:56;;;;;;;6.22;2.50;;;;;;;25.76;37.94;101258.88;5016129;28;20037;-55
2022/10/10 07:49:22;;;;;;;7.15;2.60;;;;;;;25.76;37.99;101261.53;5031477;28;20088;-54
2022/10/10 07:51:51;;;;;;;3.90;2.03;;;;;;;25.75;37.49;101265.88;5015129;28;20026;-54
2022/10/10 07:54:20;;;;;;;6.55;2.53;;;;;;;25.76;37.73;101279.91;5016099;28;20486;-54
2022/10/10 07:56:48;;;;;;;4.50;2.25;;;;;;;25.73;37.76;101275.50;5014967;28;20119;-55
2022/10/10 07:59:17;;;;;;;4.22;2.17;;;;;;;25.73;38.07;101285.13;5015835;28;20030;-55
2022/10/10 08:01:46;;;;;;;6.20;1.83;;;;;;;25.72;38.00;101280.75;5016091;28;20022;-55
2022/10/10 08:04:14;;;;;;;4.85;2.30;;;;;;;25.68;37.79;101282.47;5015907;28;20037;-55
2022/10/10 08:06:42;;;;;;;4.55;2.00;;;;;;;25.72;37.75;101286.91;5015598;28;20028;-54
2022/10/10 08:09:11;;;;;;;3.00;1.90;;;;;;;25.69;37.71;101288.59;5016007;28;20475;-55
2022/10/10 08:11:39;;;;;;;4.43;1.65;;;;;;;25.77;37.75;101300.06;5015920;28;20030;-55
2022/10/10 08:14:08;;;;;;;6.20;1.90;;;;;;;25.80;37.82;101300.13;5015855;28;20080;-51
2022/10/10 08:16:37;;;;;;;6.20;2.03;;;;;;;25.82;37.52;101306.22;5015599;28;20036;-55
2022/10/10 08:19:06;;;;;;;5.82;2.10;;;;;;;25.81;38.03;101309.75;5016000;28;20021;-53
2022/10/10 08:21:35;;;;;;;5.47;2.22;;;;;;;25.76;37.89;101320.19;5016538;28;20411;-54
2022/10/10 08:24:02;;;;;;;5.10;2.00;;;;;;;25.79;38.35;101320.25;5014350;28;20038;-56
2022/10/10 08:26:31;;;;;;;4.18;2.13;;;;;;;25.72;38.33;101325.41;5014987;28;20504;-54
2022/10/10 08:28:59;;;;;;;5.50;2.08;;;;;;;25.74;38.22;101328.94;5015182;28;20033;-54
2022/10/10 08:31:29;;;;;;;7.55;2.38;;;;;;;25.72;38.41;101335.91;5015445;28;20434;-55
2022/10/10 08:33:57;;;;;;;5.75;2.20;;;;;;;25.73;38.15;101342.94;5015355;28;20034;-54
2022/10/10 08:36:26;;;;;;;5.03;2.20;;;;;;;25.68;38.06;101345.53;5015489;28;20022;-55
2022/10/10 08:38:58;;;;;;;7.95;2.50;;;;;;;25.73;38.36;101348.19;5015444;28;20475;-56
2022/10/10 08:41:40;;;;;;;4.45;1.70;;;;;;;25.70;38.57;101354.31;5014103;28;20022;-55
2022/10/10 08:44:13;;;;;;;4.50;2.10;;;;;;;25.73;38.26;101356.94;5015007;28;20026;-54
2022/10/10 08:46:50;;;;;;;5.50;2.28;;;;;;;25.74;38.59;101365.72;5015054;28;20037;-54
2022/10/10 08:49:17;;;;;;;3.97;1.67;;;;;;;25.75;38.38;101359.59;5030488;28;20475;-54
2022/10/10 08:51:51;;;;;;;12.52;2.28;;;;;;;25.78;38.29;101362.28;5015154;28;20375;-54
2022/10/10 08:54:21;;;;;;;4.18;1.80;;;;;;;25.76;38.16;101369.25;5014869;28;20100;-54
2022/10/10 08:56:50;;;;;;;5.10;2.08;;;;;;;25.79;38.19;101372.78;5015010;28;20045;-56
2022/10/10 08:59:23;;;;;;;4.60;1.90;;;;;;;25.83;38.12;101370.22;5030316;28;20357;-54
2022/10/10 09:01:55;;;;;;;3.25;1.55;;;;;;;25.93;37.87;101391.38;5011164;28;20383;-55
2022/10/10 09:04:22;;;;;;;8.02;1.80;;;;;;;25.97;37.76;101383.53;5011782;28;20054;-54
2022/10/10 09:06:55;;;;;;;5.07;1.98;;;;;;;25.96;38.20;101385.25;5016992;28;20030;-55
2022/10/10 09:09:43;;;;;;;7.90;1.92;;;;;;;25.98;37.77;101401.06;5016970;28;20022;-56
2022/10/10 09:12:39;;;;;;;4.57;2.10;;;;;;;26.01;37.85;101406.31;5016974;28;20042;-54
2022/10/10 09:15:13;;;;;;;4.78;1.95;;;;;;;26.06;37.85;101409.91;5012912;28;20066;-51
2022/10/10 09:18:04;;;;;;;4.28;1.50;;;;;;;26.04;37.86;101414.25;5016923;28;20030;-52
2022/10/10 09:20:59;;;;;;;6.47;2.03;;;;;;;26.04;38.06;101406.38;5011908;28;20034;-54
2022/10/10 09:23:28;;;;;;;3.60;1.50;;;;;;;26.10;37.51;101411.69;5009858;28;20033;-56
2022/10/10 09:26:02;;;;;;;3.78;1.42;;;;;;;26.07;37.47;101419.56;5012758;28;20041;-53
2022/10/10 09:28:31;;;;;;;2.42;1.38;;;;;;;26.12;37.66;101422.25;5017890;28;20083;-54
2022/10/10 09:31:01;;;;;;;5.18;1.65;;;;;;;26.12;37.81;101433.69;5013052;28;20041;-54
2022/10/10 09:33:36;;;;;;;3.42;1.75;;;;;;;26.08;37.81;101434.47;5017344;28;20514;-54
2022/10/10 09:36:08;;;;;;;3.17;1.40;;;;;;;26.12;37.61;101432.78;5009511;28;20029;-55
2022/10/10 09:38:47;;;;;;;2.45;1.33;;;;;;;26.11;37.52;101437.16;5012554;28;20096;-56
2022/10/10 09:41:21;;;;;;;3.05;1.50;;;;;;;26.11;37.57;101439.78;5011712;28;20139;-54
2022/10/10 09:43:54;;;;;;;4.47;1.83;;;;;;;26.04;37.85;101432.66;5015615;28;20033;-55
2022/10/10 09:46:22;;;;;;;5.75;1.50;;;;;;;26.08;37.76;101444.97;5012148;28;20392;-54
2022/10/10 09:48:51;;;;;;;4.30;1.90;;;;;;;25.89;38.14;101442.13;5016249;28;20031;-55
2022/10/10 09:51:20;;;;;;;4.00;1.33;;;;;;;26.06;37.84;101449.34;5016718;28;20033;-54
2022/10/10 09:53:49;;;;;;;5.47;2.30;;;;;;;26.03;37.94;101457.19;5016474;28;20026;-54
2022/10/10 09:56:27;;;;;;;3.65;1.73;;;;;;;25.98;38.08;101454.50;5011846;28;20042;-56
2022/10/10 09:58:56;;;;;;;10.15;1.90;;;;;;;25.97;37.77;101458.00;4993425;28;20031;-55
2022/10/10 10:01:31;;;;;;;4.68;1.70;;;;;;;25.96;37.76;101455.34;5013034;28;20034;-55
2022/10/10 10:04:19;;;;;;;2.55;1.23;;;;;;;25.96;37.93;101466.75;5014608;28;20422;-55
2022/10/10 10:06:50;;;;;;;4.45;2.10;;;;;;;25.95;38.05;101470.22;5012950;28;20045;-55
2022/10/10 10:09:20;;;;;;;3.80;1.25;;;;;;;25.94;37.86;101478.97;5017357;28;20033;-53
2022/10/10 10:11:55;;;;;;;3.67;1.48;;;;;;;25.94;38.14;101469.38;5011361;28;20069;-55
2022/10/10 10:14:26;;;;;;;5.15;1.80;;;;;;;25.94;38.23;101481.59;5015649;28;20033;-55
2022/10/10 10:16:56;;;;;;;4.80;1.95;;;;;;;25.93;37.93;101477.22;5016014;28;20022;-55
2022/10/10 10:19:35;;;;;;;8.40;1.95;;;;;;;25.94;37.99;101478.97;5013243;28;20026;-52
2022/10/10 10:22:04;;;;;;;4.60;1.48;;;;;;;25.97;37.86;101491.28;5013076;28;20056;-54
2022/10/10 10:24:35;;;;;;;5.05;1.70;;;;;;;25.92;38.26;101483.31;5011397;28;20061;-55
2022/10/10 10:27:10;;;;;;;4.00;1.70;;;;;;;25.91;38.11;101485.09;5016185;28;20030;-54
2022/10/10 10:29:38;;;;;;;5.30;1.65;;;;;;;25.91;38.21;101498.22;5012200;28;20388;-55
2022/10/10 10:32:23;;;;;;;3.33;1.38;;;;;;;25.91;38.22;101499.97;5010851;28;20034;-55
2022/10/10 10:35:10;;;;;;;4.78;1.60;;;;;;;25.90;38.13;101499.09;5012344;28;20029;-56
2022/10/10 10:37:52;;;;;;;4.00;1.23;;;;;;;25.91;37.83;101505.22;5011840;28;20056;-55
2022/10/10 10:40:28;;;;;;;5.22;1.30;;;;;;;25.92;37.94;101507.88;5012144;28;20450;-55
2022/10/10 10:43:18;;;;;;;3.53;1.75;;;;;;;25.89;38.20;101514.84;5013515;28;20105;-56
2022/10/10 10:45:51;;;;;;;3.35;1.70;;;;;;;25.96;38.04;101521.06;5011685;28;20136;-55
2022/10/10 10:48:28;;;;;;;2.72;1.23;;;;;;;25.90;38.29;101522.75;5019284;28;20025;-56
2022/10/10 10:51:34;;;;;;;4.15;2.00;;;;;;;25.91;38.34;101532.41;5022052;28;20064;-54
2022/10/10 10:54:26;;;;;;;4.63;1.33;;;;;;;25.94;38.19;101531.56;5016236;28;20400;-55
2022/10/10 10:57:02;;;;;;;2.50;1.17;;;;;;;25.95;37.92;101538.56;5017271;28;20377;-54
2022/10/10 10:59:36;;;;;;;5.07;1.70;;;;;;;25.91;38.15;101542.91;5023023;28;20025;-55
2022/10/10 11:02:07;;;;;;;2.90;1.25;;;;;;;25.93;38.44;101546.44;5019361;28;20034;-54
2022/10/10 11:04:36;;;;;;;5.20;1.85;;;;;;;25.96;38.13;101544.72;5020910;28;20026;-55
2022/10/10 11:07:14;;;;;;;7.35;1.60;;;;;;;25.92;37.99;101543.78;5018829;28;20034;-56
2022/10/10 11:09:45;;;;;;;8.05;1.40;;;;;;;25.94;38.10;101549.94;5021888;28;20025;-54
2022/10/10 11:12:42;;;;;;;5.35;1.48;;;;;;;25.94;38.46;101550.84;5020702;28;20101;-55
2022/10/10 11:15:18;;;;;;;2.58;1.40;;;;;;;25.99;37.92;101571.03;5010004;28;20045;-55
2022/10/10 11:17:56;;;;;;;5.65;1.75;;;;;;;26.06;37.80;101571.13;5017568;28;20030;-54
2022/10/10 11:20:29;;;;;;;3.85;1.58;;;;;;;26.07;38.18;101572.91;5018212;28;20022;-55
2022/10/10 11:23:04;;;;;;;6.35;1.75;;;;;;;26.06;38.05;101581.66;5017904;28;20475;-55
2022/10/10 11:25:54;;;;;;;7.15;1.42;;;;;;;26.13;37.76;101571.28;5013366;28;20026;-55
2022/10/10 11:28:23;;;;;;;3.63;1.35;;;;;;;26.17;38.00;101581.84;5019428;28;20026;-54
2022/10/10 11:30:56;;;;;;;4.40;1.23;;;;;;;26.11;37.98;101583.47;5020544;28;20496;-54
2022/10/10 11:33:31;;;;;;;3.25;1.20;;;;;;;26.11;37.81;101596.63;5021495;28;20112;-55
2022/10/10 11:36:04;;;;;;;3.70;1.42;;;;;;;26.12;37.81;101596.69;5018562;28;20026;-56
2022/10/10 11:38:33;;;;;;;3.45;1.23;;;;;;;26.06;37.92;101596.56;5019144;28;20395;-56
2022/10/10 11:41:14;;;;;;;4.22;1.45;;;;;;;26.08;37.98;101600.97;5022570;28;20042;-56
2022/10/10 11:43:47;;;;;;;2.55;1.25;;;;;;;26.10;38.10;101601.00;5021219;28;20042;-55
2022/10/10 11:46:38;;;;;;;2.55;1.30;;;;;;;26.12;38.18;101604.59;5021593;28;20483;-55
2022/10/10 11:49:13;;;;;;;5.05;1.38;;;;;;;26.12;37.87;101609.84;5013941;28;20376;-55
2022/10/10 11:52:02;;;;;;;4.55;1.38;;;;;;;26.09;38.15;101607.13;5022021;28;20063;-54
2022/10/10 11:54:49;;;;;;;4.03;1.10;;;;;;;26.14;37.96;101607.22;5022415;28;20046;-55
2022/10/10 11:57:23;;;;;;;4.90;1.08;;;;;;;26.17;38.15;101599.38;5018117;28;20095;-54
2022/10/10 11:59:56;;;;;;;3.00;1.02;;;;;;;26.05;38.05;101603.59;5015446;28;20105;-52
2022/10/10 12:02:32;;;;;;;2.17;1.05;;;;;;;26.10;38.53;101606.28;5013848;28;20033;-54
2022/10/10 12:05:04;;;;;;;2.72;0.90;;;;;;;26.16;38.25;101618.66;5025575;28;20034;-55
2022/10/10 12:07:55;;;;;;;3.13;1.15;;;;;;;26.12;38.34;101608.94;5015194;28;20068;-55
2022/10/10 12:10:27;;;;;;;3.30;0.90;;;;;;;26.13;38.29;101608.97;5014659;28;20030;-52
2022/10/10 12:12:56;;;;;;;2.92;1.23;;;;;;;26.18;38.20;101609.91;5006056;28;20027;-53
2022/10/10 12:15:32;;;;;;;3.70;0.93;;;;;;;26.25;38.12;101613.50;5013753;28;20026;-54
2022/10/10 12:18:01;;;;;;;3.22;1.13;;;;;;;26.25;38.01;101618.75;5015242;28;20041;-54
2022/10/10 12:20:32;;;;;;;2.33;1.15;;;;;;;26.16;38.07;101614.25;5014927;28;20053;-55
2022/10/10 12:23:30;;;;;;;2.30;1.00;;;;;;;26.11;38.13;101613.34;5015397;28;20033;-54
2022/10/10 12:25:59;;;;;;;2.65;0.98;;;;;;;26.13;38.22;101619.50;5012668;28;20046;-55